createdAt,value
2023-01-11T00:00:19.214Z,100377.59
2023-01-11T00:05:22.035Z,100375.53
2023-01-11T00:10:24.940Z,100377.63
2023-01-11T00:15:29.332Z,100358.63
2023-01-11T00:20:32.127Z,100337.75
2023-01-11T00:25:35.082Z,100353.41
2023-01-11T00:30:39.564Z,100338.72
2023-01-11T00:35:42.512Z,100314.88
2023-01-11T00:40:45.262Z,100315.34
2023-01-11T00:46:15.167Z,100296.34
2023-01-11T00:51:18.047Z,100292.06
2023-01-11T00:56:20.856Z,100285.72
2023-01-11T01:01:25.094Z,100275.63
2023-01-11T01:06:28.083Z,100285.38
2023-01-11T01:11:30.918Z,100275.25
2023-01-11T01:16:41.349Z,100277.94
2023-01-11T01:21:44.158Z,100263.63
2023-01-11T01:26:46.988Z,100257.03
2023-01-11T01:31:51.590Z,100249.56
2023-01-11T01:36:55.806Z,100238.16
2023-01-11T01:41:59.579Z,100233.13
2023-01-11T01:47:08.129Z,100234.91
2023-01-11T01:52:11.162Z,100228.75
2023-01-11T01:57:20.041Z,100221.03
2023-01-11T02:02:27.837Z,100207.16
2023-01-11T02:07:34.747Z,100217.66
2023-01-11T02:12:41.774Z,100193.06
2023-01-11T02:17:51.136Z,100190.28
2023-01-11T02:23:32.542Z,100189.13
2023-01-11T02:28:42.983Z,100171.44
2023-01-11T02:33:55.410Z,100165.44
2023-01-11T02:39:08.063Z,100157.84
2023-01-11T02:44:33.484Z,100157.81
2023-01-11T02:49:44.726Z,100144.19
2023-01-11T02:54:54.259Z,100152.34
2023-01-11T02:59:59.876Z,100140.75
2023-01-11T03:05:02.877Z,100152.72
2023-01-11T03:10:21.998Z,100141.47
2023-01-11T03:15:50.902Z,100145.84
2023-01-11T03:21:03.494Z,100128.31
2023-01-11T03:26:17.099Z,100122.06
2023-01-11T03:31:27.287Z,100144.13
2023-01-11T03:42:03.777Z,100123.50
2023-01-11T03:47:11.476Z,100122.34
2023-01-11T03:52:17.700Z,100102.53
2023-01-11T03:57:24.369Z,100099.28
2023-01-11T04:02:36.031Z,100098.41
2023-01-11T04:07:39.365Z,100096.59
2023-01-11T04:12:42.190Z,100095.25
2023-01-11T04:17:46.360Z,100096.00
2023-01-11T04:22:49.123Z,100085.63
2023-01-11T04:27:52.024Z,100086.69
2023-01-11T04:32:58.719Z,100085.81
2023-01-11T04:38:01.570Z,100081.06
2023-01-11T04:43:04.753Z,100086.91
2023-01-11T04:48:09.104Z,100083.72
2023-01-11T04:53:11.851Z,100074.03
2023-01-11T04:58:14.594Z,100075.72
2023-01-11T05:03:18.941Z,100077.19
2023-01-11T05:08:21.779Z,100082.53
2023-01-11T05:13:41.448Z,100083.13
2023-01-11T05:18:47.430Z,100083.53
2023-01-11T05:23:50.833Z,100082.28
2023-01-11T05:28:54.129Z,100072.53
2023-01-11T05:33:59.679Z,100087.81
2023-01-11T05:39:03.290Z,100078.00
2023-01-11T05:44:24.541Z,100094.16
2023-01-11T05:49:28.690Z,100079.06
2023-01-11T05:54:31.751Z,100071.06
2023-01-11T05:59:34.499Z,100070.72
2023-01-11T06:04:38.767Z,100081.19
2023-01-11T06:09:41.913Z,100077.88
2023-01-11T06:14:44.709Z,100096.75
2023-01-11T06:19:48.908Z,100085.53
2023-01-11T06:24:51.662Z,100089.31
2023-01-11T06:29:54.470Z,100076.88
2023-01-11T06:34:58.571Z,100089.09
2023-01-11T06:40:01.457Z,100087.72
2023-01-11T06:45:04.868Z,100088.91
2023-01-11T06:50:10.835Z,100082.69
2023-01-11T06:55:13.585Z,100087.09
2023-01-11T07:00:17.213Z,100110.41
2023-01-11T07:05:21.500Z,100109.19
2023-01-11T07:10:24.340Z,100108.22
2023-01-11T07:15:27.208Z,100120.91
2023-01-11T07:20:31.380Z,100137.56
2023-01-11T07:25:34.495Z,100136.97
2023-01-11T07:30:55.953Z,100137.34
2023-01-11T07:36:05.305Z,100133.63
2023-01-11T07:41:22.115Z,100133.44
2023-01-11T07:46:24.997Z,100142.94
2023-01-11T07:51:32.054Z,100142.84
2023-01-11T07:56:34.781Z,100138.00
2023-01-11T08:01:37.967Z,100155.47
2023-01-11T08:06:43.063Z,100152.22
2023-01-11T08:12:03.272Z,100172.31
2023-01-11T08:17:06.419Z,100184.81
2023-01-11T08:22:10.685Z,100202.13
2023-01-11T08:27:13.530Z,100190.88
2023-01-11T08:32:16.413Z,100197.16
2023-01-11T08:37:20.618Z,100200.09
2023-01-11T08:42:23.426Z,100197.41
2023-01-11T08:47:26.259Z,100197.78
2023-01-11T08:52:30.383Z,100201.28
2023-01-11T08:57:33.176Z,100198.59
2023-01-11T09:02:36.140Z,100208.84
2023-01-11T09:07:40.306Z,100229.13
2023-01-11T09:12:43.137Z,100249.09
2023-01-11T09:17:47.420Z,100237.88
2023-01-11T09:22:53.410Z,100235.09
2023-01-11T09:27:56.261Z,100224.75
2023-01-11T09:32:59.038Z,100233.97
2023-01-11T09:38:03.223Z,100227.88
2023-01-11T09:43:08.716Z,100226.34
2023-01-11T09:48:26.748Z,100233.13
2023-01-11T09:53:36.184Z,100240.97
2023-01-11T09:58:50.984Z,100248.97
2023-01-11T10:04:28.525Z,100247.84
2023-01-11T10:18:27.482Z,100245.50
2023-01-11T10:20:43.790Z,100254.06
2023-01-11T10:25:51.670Z,100257.94
2023-01-11T10:31:11.200Z,100269.50
2023-01-11T10:36:39.595Z,100288.31
2023-01-11T10:41:54.985Z,100277.97
2023-01-11T10:47:00.195Z,100264.13
2023-01-11T10:52:15.698Z,100257.06
2023-01-11T10:57:39.850Z,100256.38
2023-01-11T11:03:23.176Z,100260.53
2023-01-11T11:08:32.296Z,100267.38
2023-01-11T11:13:48.076Z,100261.03
2023-01-11T11:18:55.058Z,100264.84
2023-01-11T11:24:01.751Z,100269.03
2023-01-11T11:29:11.095Z,100256.34
2023-01-11T11:34:19.951Z,100263.69
2023-01-11T11:39:27.299Z,100281.78
2023-01-11T11:44:31.431Z,100272.88
2023-01-11T11:49:36.195Z,100258.56
2023-01-11T11:54:43.219Z,100258.16
2023-01-11T11:59:50.361Z,100259.00
2023-01-11T12:10:34.874Z,100278.41
2023-01-11T12:15:39.317Z,100273.75
2023-01-11T12:20:44.740Z,100273.91
2023-01-11T12:26:19.820Z,100278.31
2023-01-11T12:31:31.797Z,100284.91
2023-01-11T12:36:40.814Z,100281.44
2023-01-11T12:42:03.612Z,100283.31
2023-01-11T12:47:21.480Z,100280.06
2023-01-11T12:52:59.119Z,100288.94
2023-01-11T12:58:08.870Z,100283.66
2023-01-11T13:03:57.177Z,100279.66
2023-01-11T13:09:07.191Z,100278.78
2023-01-11T13:14:34.797Z,100294.88
2023-01-11T13:19:47.835Z,100296.72
2023-01-11T13:24:52.208Z,100298.19
2023-01-11T13:29:59.302Z,100305.38
2023-01-11T13:35:08.025Z,100302.25
2023-01-11T13:40:19.930Z,100311.63
2023-01-11T13:45:27.351Z,100318.88
2023-01-11T13:50:35.241Z,100329.78
2023-01-11T13:55:44.837Z,100340.22
2023-01-11T14:00:54.765Z,100355.81
2023-01-11T14:06:17.978Z,100364.09
2023-01-11T14:11:27.448Z,100364.78
2023-01-11T14:16:40.171Z,100367.09
2023-01-11T14:21:58.551Z,100379.69
2023-01-11T14:27:20.953Z,100381.47
2023-01-11T14:32:45.556Z,100376.56
2023-01-11T14:38:15.821Z,100387.78
2023-01-11T14:43:33.044Z,100398.91
2023-01-11T14:48:47.360Z,100408.28
2023-01-11T14:53:56.150Z,100412.81
2023-01-11T14:59:06.257Z,100429.75
2023-01-11T15:04:21.979Z,100432.47
2023-01-11T15:09:45.557Z,100437.38
2023-01-11T15:14:50.229Z,100437.69
2023-01-11T15:19:53.354Z,100441.00
2023-01-11T15:25:01.083Z,100427.84
2023-01-11T15:30:05.782Z,100429.81
2023-01-11T15:35:33.736Z,100428.94
2023-01-11T15:40:41.634Z,100424.72
2023-01-11T15:46:29.251Z,100417.41
2023-01-11T15:51:56.794Z,100422.88
2023-01-11T15:57:15.943Z,100415.28
2023-01-11T16:02:52.194Z,100413.81
2023-01-11T16:08:04.585Z,100418.63
2023-01-11T16:13:29.560Z,100415.28
2023-01-11T16:18:38.308Z,100431.91
2023-01-11T16:23:41.977Z,100429.88
2023-01-11T16:28:54.112Z,100443.88
2023-01-11T16:34:07.490Z,100450.25
2023-01-11T16:39:14.353Z,100443.84
2023-01-11T16:44:27.871Z,100452.34
2023-01-11T16:49:31.091Z,100452.91
2023-01-11T16:54:34.398Z,100458.38
2023-01-11T16:59:38.649Z,100462.50
2023-01-11T17:04:54.126Z,100456.00
2023-01-11T17:10:17.468Z,100461.81
2023-01-11T17:15:28.019Z,100471.50
2023-01-11T17:20:31.864Z,100466.81
2023-01-11T17:25:44.457Z,100470.44
2023-01-11T17:30:53.116Z,100479.50
2023-01-11T17:35:56.828Z,100471.31
2023-01-11T17:41:01.283Z,100472.00
2023-01-11T17:46:06.620Z,100478.75
2023-01-11T17:51:09.792Z,100470.00
2023-01-11T17:56:39.095Z,100465.75
2023-01-11T18:01:48.041Z,100478.25
2023-01-11T18:06:53.832Z,100478.97
2023-01-11T18:12:09.009Z,100480.97
2023-01-11T18:17:31.869Z,100475.28
2023-01-11T18:22:37.337Z,100496.47
2023-01-11T18:27:47.414Z,100495.56
2023-01-11T18:32:50.362Z,100501.78
2023-01-11T18:37:53.162Z,100491.59
2023-01-11T18:42:57.389Z,100495.41
2023-01-11T18:48:00.315Z,100483.50
2023-01-11T18:53:03.371Z,100480.59
2023-01-11T18:58:09.750Z,100482.47
2023-01-11T19:08:15.767Z,100490.28
2023-01-11T19:13:21.539Z,100486.88
2023-01-11T19:18:24.643Z,100484.38
2023-01-11T19:23:27.598Z,100478.03
2023-01-11T19:28:32.033Z,100481.50
2023-01-11T19:33:34.824Z,100480.25
2023-01-11T19:38:42.121Z,100473.19
2023-01-11T19:43:47.098Z,100456.91
2023-01-11T19:48:50.052Z,100436.16
2023-01-11T19:53:52.874Z,100435.56
2023-01-11T19:58:57.025Z,100435.13
2023-01-11T20:03:59.973Z,100444.13
2023-01-11T20:09:03.994Z,100445.53
2023-01-11T20:14:09.184Z,100441.66
2023-01-11T20:19:13.244Z,100430.72
2023-01-11T20:24:16.598Z,100432.09
2023-01-11T20:29:21.072Z,100420.69
2023-01-11T20:34:23.971Z,100410.63
2023-01-11T20:39:27.586Z,100396.75
2023-01-11T20:44:32.323Z,100399.88
2023-01-11T20:49:37.579Z,100392.63
2023-01-11T20:54:40.408Z,100386.50
2023-01-11T20:59:44.661Z,100372.94
2023-01-11T21:04:47.679Z,100363.94
2023-01-11T21:09:50.495Z,100354.97
2023-01-11T21:14:54.673Z,100351.75
2023-01-11T21:19:57.483Z,100352.69
2023-01-11T21:25:00.235Z,100334.59
2023-01-11T21:30:05.115Z,100321.00
2023-01-11T21:35:08.501Z,100320.53
2023-01-11T21:40:14.037Z,100313.50
2023-01-11T21:45:18.355Z,100311.63
2023-01-11T21:50:21.118Z,100306.47
2023-01-11T21:55:23.965Z,100298.91
2023-01-11T22:00:29.662Z,100276.44
2023-01-11T22:05:33.182Z,100282.38
2023-01-11T22:10:36.418Z,100264.22
2023-01-11T22:15:48.746Z,100253.41
2023-01-11T22:20:58.043Z,100255.34
2023-01-11T22:26:09.261Z,100262.75
2023-01-11T22:31:15.744Z,100249.00
2023-01-11T22:36:19.424Z,100245.25
2023-01-11T22:41:39.555Z,100248.25
2023-01-11T22:46:46.732Z,100240.22
2023-01-11T22:51:49.920Z,100232.59
2023-01-11T22:56:57.004Z,100212.88
2023-01-11T23:02:01.293Z,100220.69
2023-01-11T23:07:08.708Z,100210.38
2023-01-11T23:12:33.754Z,100201.59
2023-01-11T23:17:38.379Z,100208.66
2023-01-11T23:22:47.076Z,100196.72
2023-01-11T23:27:49.919Z,100185.56
2023-01-11T23:32:59.302Z,100179.31
2023-01-11T23:38:02.421Z,100185.41
2023-01-11T23:43:05.474Z,100189.69
2023-01-11T23:48:13.054Z,100183.69
2023-01-11T23:53:17.333Z,100188.72
2023-01-11T23:58:22.506Z,100166.91
